createdAt,value
2022-12-28T00:01:40.000Z,1.6
2022-12-28T00:07:09.000Z,1.4
2022-12-28T00:09:54.000Z,1.5
2022-12-28T00:12:38.000Z,1.7
2022-12-28T00:15:23.000Z,1.6
2022-12-28T00:18:08.000Z,1.6
2022-12-28T00:19:26.000Z,1.6
2022-12-28T00:20:52.000Z,1.8
2022-12-28T00:23:37.000Z,1.5
2022-12-28T00:26:22.000Z,1.5
2022-12-28T00:29:06.000Z,1.7
2022-12-28T00:31:51.000Z,1.3
2022-12-28T00:34:36.000Z,1.2
2022-12-28T00:40:05.000Z,1.6
2022-12-28T00:42:49.000Z,1.5
2022-12-28T00:45:34.000Z,1.3
2022-12-28T00:46:52.000Z,1.3
2022-12-28T00:51:03.000Z,1.5
2022-12-28T00:53:48.000Z,1.5
2022-12-28T00:56:49.000Z,1.5
2022-12-28T00:59:34.000Z,1.3
2022-12-28T01:02:18.000Z,1.4
2022-12-28T01:05:03.000Z,1.3
2022-12-28T01:07:48.000Z,1.3
2022-12-28T01:10:32.000Z,1.4
2022-12-28T01:13:17.000Z,1.3
2022-12-28T01:16:02.000Z,1.3
2022-12-28T01:18:46.000Z,1.7
2022-12-28T01:21:31.000Z,1.8
2022-12-28T01:24:15.000Z,1.6
2022-12-28T01:27:00.000Z,1.4
2022-12-28T01:29:45.000Z,1.6
2022-12-28T01:32:29.000Z,1.5
2022-12-28T01:35:14.000Z,1.4
2022-12-28T01:37:59.000Z,1.6
2022-12-28T01:40:43.000Z,1.5
2022-12-28T01:42:01.000Z,1.7
2022-12-28T01:43:28.000Z,1.2
2022-12-28T01:48:57.000Z,1.6
2022-12-28T01:51:42.000Z,1.7
2022-12-28T01:54:27.000Z,1.8
2022-12-28T01:57:11.000Z,1.8
2022-12-28T01:59:56.000Z,1.6
2022-12-28T02:02:40.000Z,1.8
2022-12-28T02:05:25.000Z,2
2022-12-28T02:08:10.000Z,1.4
2022-12-28T02:09:28.000Z,1.7
2022-12-28T02:10:54.000Z,1.8
2022-12-28T02:13:39.000Z,2.1
2022-12-28T02:16:24.000Z,1.5
2022-12-28T02:19:08.000Z,1.7
2022-12-28T02:21:53.000Z,2.1
2022-12-28T02:24:38.000Z,2.1
2022-12-28T02:27:22.000Z,1.9
2022-12-28T02:30:23.000Z,2.4
2022-12-28T02:33:08.000Z,2.5
2022-12-28T02:35:53.000Z,2.2
2022-12-28T02:37:10.000Z,2.3
2022-12-28T02:38:37.000Z,2
2022-12-28T02:41:22.000Z,2.4
2022-12-28T02:44:06.000Z,2.4
2022-12-28T02:46:51.000Z,1.9
2022-12-28T02:49:36.000Z,2.5
2022-12-28T02:52:20.000Z,2.4
2022-12-28T02:55:05.000Z,2.2
2022-12-28T02:57:50.000Z,2.3
2022-12-28T03:00:34.000Z,2
2022-12-28T03:03:19.000Z,2.4
2022-12-28T03:04:37.000Z,1.8
2022-12-28T03:06:04.000Z,1.9
2022-12-28T03:11:33.000Z,1.8
2022-12-28T03:14:18.000Z,1.6
2022-12-28T03:17:02.000Z,1.6
2022-12-28T03:19:47.000Z,1.6
2022-12-28T03:22:31.000Z,1.5
2022-12-28T03:25:16.000Z,1.8
2022-12-28T03:28:01.000Z,1.3
2022-12-28T03:30:45.000Z,1.8
2022-12-28T03:32:03.000Z,1.6
2022-12-28T03:33:30.000Z,1.5
2022-12-28T03:36:15.000Z,1.8
2022-12-28T03:38:59.000Z,1.8
2022-12-28T03:41:44.000Z,1.4
2022-12-28T03:44:29.000Z,1.6
2022-12-28T03:47:13.000Z,1.8
2022-12-28T03:49:58.000Z,1.6
2022-12-28T03:52:43.000Z,1.8
2022-12-28T03:55:27.000Z,1.8
2022-12-28T03:58:12.000Z,1.9
2022-12-28T03:59:30.000Z,2
2022-12-28T04:00:56.000Z,2.1
2022-12-28T04:03:41.000Z,2.4
2022-12-28T04:06:26.000Z,2.3
2022-12-28T04:09:10.000Z,2
2022-12-28T04:11:55.000Z,2.2
2022-12-28T04:14:40.000Z,2.1
2022-12-28T04:17:24.000Z,2.6
2022-12-28T04:20:09.000Z,2.4
2022-12-28T04:22:54.000Z,2.3
2022-12-28T04:25:38.000Z,2.4
2022-12-28T04:26:56.000Z,2.6
2022-12-28T04:28:23.000Z,2.9
2022-12-28T04:31:08.000Z,3.4
2022-12-28T04:33:52.000Z,3.2
2022-12-28T04:36:37.000Z,3.1
2022-12-28T04:39:21.000Z,3.5
2022-12-28T04:42:06.000Z,3.3
2022-12-28T04:44:51.000Z,3.7
2022-12-28T04:47:35.000Z,3.3
2022-12-28T04:50:20.000Z,3.1
2022-12-28T04:53:05.000Z,3.8
2022-12-28T04:54:22.000Z,3.5
2022-12-28T04:55:49.000Z,3.8
2022-12-28T04:58:34.000Z,4
2022-12-28T05:01:19.000Z,3.9
2022-12-28T05:04:03.000Z,3.9
2022-12-28T05:06:48.000Z,4.2
2022-12-28T05:09:33.000Z,4.1
2022-12-28T05:12:17.000Z,3.5
2022-12-28T05:15:02.000Z,3.9
2022-12-28T05:17:46.000Z,4.1
2022-12-28T05:20:31.000Z,5.8
2022-12-28T05:21:49.000Z,7
2022-12-28T05:23:16.000Z,6.3
2022-12-28T05:26:00.000Z,6.7
2022-12-28T05:28:45.000Z,7.2
2022-12-28T05:31:30.000Z,6.8
2022-12-28T05:34:14.000Z,6.2
2022-12-28T05:36:59.000Z,7.5
2022-12-28T05:39:44.000Z,7.4
2022-12-28T05:42:45.000Z,7.4
2022-12-28T05:45:29.000Z,7.9
2022-12-28T05:48:14.000Z,8.9
2022-12-28T05:50:59.000Z,8.4
2022-12-28T05:53:43.000Z,8.1
2022-12-28T05:56:28.000Z,8.7
2022-12-28T06:01:57.000Z,9.1
2022-12-28T06:04:42.000Z,9.2
2022-12-28T06:10:11.000Z,9.8
2022-12-28T06:12:56.000Z,9.8
2022-12-28T06:15:40.000Z,9.7
2022-12-28T06:16:58.000Z,9.2
2022-12-28T06:18:25.000Z,8.9
2022-12-28T06:21:10.000Z,10.3
2022-12-28T06:24:11.000Z,9.9
2022-12-28T06:26:55.000Z,9.9
2022-12-28T06:29:40.000Z,10.5
2022-12-28T06:32:25.000Z,10.4
2022-12-28T06:35:09.000Z,10.2
2022-12-28T06:37:54.000Z,10.7
2022-12-28T06:40:38.000Z,10.6
2022-12-28T06:43:23.000Z,10.8
2022-12-28T06:44:41.000Z,9.5
2022-12-28T06:46:08.000Z,11.5
2022-12-28T06:48:52.000Z,12.1
2022-12-28T06:51:37.000Z,12.2
2022-12-28T06:54:22.000Z,11
2022-12-28T06:57:06.000Z,12.3
2022-12-28T06:59:51.000Z,11.4
2022-12-28T07:02:36.000Z,10.8
2022-12-28T07:05:20.000Z,12.3
2022-12-28T07:08:05.000Z,13.4
2022-12-28T07:10:50.000Z,12.7
2022-12-28T07:12:07.000Z,13.3
2022-12-28T07:13:51.000Z,12.7
2022-12-28T07:19:20.000Z,12.4
2022-12-28T07:22:04.000Z,13.2
2022-12-28T07:24:49.000Z,12.7
2022-12-28T07:30:18.000Z,13.6
2022-12-28T07:33:03.000Z,13.4
2022-12-28T07:35:48.000Z,13
2022-12-28T07:38:32.000Z,12.7
2022-12-28T07:39:50.000Z,13.9
2022-12-28T07:41:17.000Z,13.6
2022-12-28T07:44:02.000Z,13.2
2022-12-28T07:46:46.000Z,13.6
2022-12-28T07:49:31.000Z,13.3
2022-12-28T07:52:15.000Z,14.8
2022-12-28T07:55:00.000Z,13.3
2022-12-28T07:57:45.000Z,14.5
2022-12-28T08:00:29.000Z,14.2
2022-12-28T08:03:14.000Z,13.6
2022-12-28T08:05:59.000Z,14
2022-12-28T08:07:16.000Z,14.2
2022-12-28T08:08:43.000Z,12.9
2022-12-28T08:11:28.000Z,14.8
2022-12-28T08:14:13.000Z,14.6
2022-12-28T08:16:57.000Z,14.6
2022-12-28T08:19:42.000Z,15.2
2022-12-28T08:22:27.000Z,15.1
2022-12-28T08:25:11.000Z,14.4
2022-12-28T08:27:56.000Z,15.7
2022-12-28T08:30:40.000Z,15.7
2022-12-28T08:33:25.000Z,15.4
2022-12-28T08:34:43.000Z,17.2
2022-12-28T08:36:10.000Z,17.1
2022-12-28T08:38:54.000Z,16.1
2022-12-28T08:41:39.000Z,18
2022-12-28T08:44:24.000Z,18.3
2022-12-28T08:47:08.000Z,17.6
2022-12-28T08:49:53.000Z,16.6
2022-12-28T08:52:38.000Z,19.6
2022-12-28T08:55:22.000Z,19.5
2022-12-28T08:58:07.000Z,17.9
2022-12-28T09:00:51.000Z,15.9
2022-12-28T09:02:09.000Z,17.1
2022-12-28T09:03:36.000Z,17.7
2022-12-28T09:06:21.000Z,15.4
2022-12-28T09:09:05.000Z,16.8
2022-12-28T09:11:50.000Z,15.7
2022-12-28T09:14:35.000Z,15.7
2022-12-28T09:17:19.000Z,15.6
2022-12-28T09:20:04.000Z,14
2022-12-28T09:22:49.000Z,13.7
2022-12-28T09:25:33.000Z,13
2022-12-28T09:28:18.000Z,14.6
2022-12-28T09:29:36.000Z,13.9
2022-12-28T09:31:03.000Z,14.8
2022-12-28T09:33:47.000Z,15.4
2022-12-28T09:36:32.000Z,13.5
2022-12-28T09:39:16.000Z,12.6
2022-12-28T09:42:01.000Z,13
2022-12-28T09:44:46.000Z,12
2022-12-28T09:47:30.000Z,14.1
2022-12-28T09:50:15.000Z,14.6
2022-12-28T09:53:00.000Z,13.8
2022-12-28T09:55:44.000Z,14.4
2022-12-28T09:57:02.000Z,13.9
2022-12-28T09:58:29.000Z,13.1
2022-12-28T10:03:58.000Z,14.2
2022-12-28T10:06:43.000Z,13.5
2022-12-28T10:09:27.000Z,14.1
2022-12-28T10:12:12.000Z,15.1
2022-12-28T10:14:57.000Z,14.5
2022-12-28T10:17:41.000Z,13.3
2022-12-28T10:20:26.000Z,14.1
2022-12-28T10:23:11.000Z,13
2022-12-28T10:24:28.000Z,13.1
2022-12-28T10:25:55.000Z,11.8
2022-12-28T10:28:40.000Z,12.2
2022-12-28T10:31:25.000Z,10.7
2022-12-28T10:34:09.000Z,10.6
2022-12-28T10:36:54.000Z,10.4
2022-12-28T10:39:39.000Z,10.4
2022-12-28T10:42:23.000Z,10.7
2022-12-28T10:45:08.000Z,11
2022-12-28T10:47:52.000Z,11.4
2022-12-28T10:50:37.000Z,10.5
2022-12-28T10:51:55.000Z,10.7
2022-12-28T10:53:22.000Z,10.3
2022-12-28T10:56:06.000Z,10.4
2022-12-28T10:58:51.000Z,9.9
2022-12-28T11:01:36.000Z,11.2
2022-12-28T11:04:20.000Z,10.1
2022-12-28T11:07:05.000Z,9.8
2022-12-28T11:09:50.000Z,10.2
2022-12-28T11:12:34.000Z,8.8
2022-12-28T11:15:19.000Z,8
2022-12-28T11:18:03.000Z,7.6
2022-12-28T11:19:21.000Z,7.3
2022-12-28T11:20:48.000Z,7.7
2022-12-28T11:26:17.000Z,6.7
2022-12-28T11:29:02.000Z,7.8
2022-12-28T11:31:47.000Z,7
2022-12-28T11:34:31.000Z,6.9
2022-12-28T11:37:16.000Z,6.7
2022-12-28T11:40:01.000Z,7.1
2022-12-28T11:42:45.000Z,5.5
2022-12-28T11:45:30.000Z,5.6
2022-12-28T11:46:48.000Z,5.2
2022-12-28T11:48:15.000Z,4.8
2022-12-28T11:50:59.000Z,4.6
2022-12-28T11:53:44.000Z,4.9
2022-12-28T11:56:28.000Z,5
2022-12-28T11:59:13.000Z,4.8
2022-12-28T12:01:58.000Z,4.8
2022-12-28T12:07:27.000Z,4.8
2022-12-28T12:10:12.000Z,5.1
2022-12-28T12:12:56.000Z,5.9
2022-12-28T12:14:14.000Z,5.9
2022-12-28T12:15:41.000Z,5.5
2022-12-28T12:18:26.000Z,5.7
2022-12-28T12:21:10.000Z,5.9
2022-12-28T12:23:55.000Z,5.9
2022-12-28T12:26:40.000Z,5.9
2022-12-28T12:29:24.000Z,5.7
2022-12-28T12:32:09.000Z,5.7
2022-12-28T12:34:53.000Z,5.5
2022-12-28T12:37:38.000Z,5.7
2022-12-28T12:40:23.000Z,5.6
2022-12-28T12:43:07.000Z,6.1
2022-12-28T12:45:52.000Z,6.3
2022-12-28T12:48:37.000Z,5.7
2022-12-28T12:51:21.000Z,6.5
2022-12-28T12:54:06.000Z,6
2022-12-28T12:56:51.000Z,6.3
2022-12-28T12:59:35.000Z,6.1
2022-12-28T13:02:20.000Z,6.6
2022-12-28T13:05:04.000Z,6
2022-12-28T13:07:49.000Z,6.3
2022-12-28T13:09:07.000Z,5.8
2022-12-28T13:10:34.000Z,5.9
2022-12-28T13:13:18.000Z,6.3
2022-12-28T13:16:03.000Z,6.8
2022-12-28T13:21:32.000Z,6.6
2022-12-28T13:24:17.000Z,6
2022-12-28T13:27:02.000Z,6.6
2022-12-28T13:29:46.000Z,6.3
2022-12-28T13:32:31.000Z,6.4
2022-12-28T13:35:16.000Z,6.6
2022-12-28T13:36:33.000Z,6.2
2022-12-28T13:38:00.000Z,6.8
2022-12-28T13:40:45.000Z,6.5
2022-12-28T13:43:29.000Z,5.9
2022-12-28T13:46:14.000Z,5.7
2022-12-28T13:48:59.000Z,6.1
2022-12-28T13:51:43.000Z,5.4
2022-12-28T13:54:28.000Z,5.1
2022-12-28T13:57:13.000Z,4.9
2022-12-28T13:59:57.000Z,4
2022-12-28T14:02:42.000Z,4.4
2022-12-28T14:04:00.000Z,4.3
2022-12-28T14:05:43.000Z,4.6
2022-12-28T14:08:28.000Z,3.8
2022-12-28T14:11:12.000Z,3.9
2022-12-28T14:13:57.000Z,4.2
2022-12-28T14:16:42.000Z,3.7
2022-12-28T14:19:26.000Z,3.7
2022-12-28T14:22:11.000Z,3.5
2022-12-28T14:24:55.000Z,3.9
2022-12-28T14:27:40.000Z,3.5
2022-12-28T14:30:25.000Z,3
2022-12-28T14:31:42.000Z,2.8
2022-12-28T14:33:09.000Z,2.5
2022-12-28T14:35:54.000Z,2.7
2022-12-28T14:38:39.000Z,2.7
2022-12-28T14:41:23.000Z,2.4
2022-12-28T14:44:08.000Z,2.2
2022-12-28T14:46:53.000Z,2.1
2022-12-28T14:49:37.000Z,2
2022-12-28T14:52:22.000Z,2.3
2022-12-28T14:55:06.000Z,2
2022-12-28T14:57:51.000Z,2.2
2022-12-28T14:59:09.000Z,1.9
2022-12-28T15:00:36.000Z,2.2
2022-12-28T15:03:20.000Z,2.1
2022-12-28T15:06:05.000Z,2
2022-12-28T15:08:50.000Z,2.1
2022-12-28T15:11:34.000Z,2
2022-12-28T15:14:19.000Z,2.2
2022-12-28T15:17:04.000Z,1.9
2022-12-28T15:19:48.000Z,2
2022-12-28T15:22:33.000Z,2.1
2022-12-28T15:25:18.000Z,2.3
2022-12-28T15:26:35.000Z,2.2
2022-12-28T15:28:02.000Z,2.2
2022-12-28T15:30:47.000Z,2.3
2022-12-28T15:33:31.000Z,2.2
2022-12-28T15:36:16.000Z,2.2
2022-12-28T15:39:01.000Z,2.2
2022-12-28T15:41:45.000Z,2
2022-12-28T15:44:30.000Z,1.9
2022-12-28T15:47:15.000Z,2
2022-12-28T15:49:59.000Z,1.8
2022-12-28T15:52:44.000Z,2
2022-12-28T15:54:02.000Z,2.3
2022-12-28T15:55:29.000Z,1.9
2022-12-28T15:58:13.000Z,2
2022-12-28T16:00:58.000Z,2
2022-12-28T16:03:43.000Z,1.9
2022-12-28T16:06:27.000Z,2.1
2022-12-28T16:11:56.000Z,1.9
2022-12-28T16:14:41.000Z,1.9
2022-12-28T16:17:26.000Z,1.9
2022-12-28T16:20:10.000Z,1.9
2022-12-28T16:21:28.000Z,2
2022-12-28T16:22:55.000Z,1.8
2022-12-28T16:25:40.000Z,2.1
2022-12-28T16:28:24.000Z,2.1
2022-12-28T16:31:09.000Z,2
2022-12-28T16:36:38.000Z,2.3
2022-12-28T16:39:23.000Z,2.1
2022-12-28T16:42:07.000Z,1.9
2022-12-28T16:44:52.000Z,1.9
2022-12-28T16:47:37.000Z,2
2022-12-28T16:48:55.000Z,1.7
2022-12-28T16:50:21.000Z,2
2022-12-28T16:53:06.000Z,1.9
2022-12-28T16:55:51.000Z,1.9
2022-12-28T16:58:35.000Z,2.2
2022-12-28T17:01:20.000Z,2.2
2022-12-28T17:04:05.000Z,2
2022-12-28T17:06:49.000Z,1.7
2022-12-28T17:09:34.000Z,2
2022-12-28T17:12:19.000Z,1.7
2022-12-28T17:15:03.000Z,1.4
2022-12-28T17:16:21.000Z,1.4
2022-12-28T17:17:48.000Z,1.4
2022-12-28T17:20:32.000Z,1.4
2022-12-28T17:23:17.000Z,1.6
2022-12-28T17:26:02.000Z,1.5
2022-12-28T17:28:46.000Z,1.3
2022-12-28T17:31:31.000Z,1.4
2022-12-28T17:34:16.000Z,1.3
2022-12-28T17:37:00.000Z,1.7
2022-12-28T17:39:45.000Z,1.7
2022-12-28T17:42:30.000Z,1.6
2022-12-28T17:43:47.000Z,1.6
2022-12-28T17:45:14.000Z,1.8
2022-12-28T17:47:59.000Z,1.6
2022-12-28T17:50:43.000Z,1.8
2022-12-28T17:53:28.000Z,1.8
2022-12-28T17:56:13.000Z,1.9
2022-12-28T17:58:57.000Z,1.9
2022-12-28T18:01:42.000Z,2.2
2022-12-28T18:04:27.000Z,2.1
2022-12-28T18:07:11.000Z,2.2
2022-12-28T18:09:56.000Z,2.8
2022-12-28T18:11:14.000Z,2.7
2022-12-28T18:12:41.000Z,2.8
2022-12-28T18:15:25.000Z,2.6
2022-12-28T18:18:10.000Z,2.7
2022-12-28T18:20:55.000Z,2.9
2022-12-28T18:23:39.000Z,3
2022-12-28T18:26:24.000Z,3.2
2022-12-28T18:29:08.000Z,3.8
2022-12-28T18:31:53.000Z,3.2
2022-12-28T18:34:38.000Z,3.3
2022-12-28T18:37:22.000Z,3.5
2022-12-28T18:38:40.000Z,3.4
2022-12-28T18:40:07.000Z,3.4
2022-12-28T18:42:52.000Z,3.4
2022-12-28T18:45:36.000Z,4.3
2022-12-28T18:48:21.000Z,3.2
2022-12-28T18:51:06.000Z,3.9
2022-12-28T18:53:50.000Z,4.3
2022-12-28T18:56:35.000Z,4.1
2022-12-28T18:59:20.000Z,4.2
2022-12-28T19:02:04.000Z,3.1
2022-12-28T19:04:49.000Z,3.8
2022-12-28T19:06:07.000Z,3.4
2022-12-28T19:07:33.000Z,4.2
2022-12-28T19:10:18.000Z,3.9
2022-12-28T19:13:03.000Z,4.3
2022-12-28T19:15:47.000Z,4.2
2022-12-28T19:21:17.000Z,4.6
2022-12-28T19:24:01.000Z,4.7
2022-12-28T19:26:46.000Z,4.7
2022-12-28T19:29:31.000Z,4.3
2022-12-28T19:32:15.000Z,4.2
2022-12-28T19:33:33.000Z,4
2022-12-28T19:35:00.000Z,4.3
2022-12-28T19:37:44.000Z,3.8
2022-12-28T19:40:29.000Z,4
2022-12-28T19:43:14.000Z,4.1
2022-12-28T19:45:58.000Z,3.8
2022-12-28T19:48:43.000Z,4.5
2022-12-28T19:51:28.000Z,4.2
2022-12-28T19:54:12.000Z,4.6
2022-12-28T19:56:57.000Z,4.3
2022-12-28T19:59:42.000Z,4.8
2022-12-28T20:01:00.000Z,5.1
2022-12-28T20:02:26.000Z,4.3
2022-12-28T20:05:11.000Z,4.2
2022-12-28T20:07:56.000Z,4.1
2022-12-28T20:10:40.000Z,4.4
2022-12-28T20:13:25.000Z,4.1
2022-12-28T20:16:09.000Z,4.3
2022-12-28T20:18:54.000Z,4.6
2022-12-28T20:21:39.000Z,4.5
2022-12-28T20:24:23.000Z,4.5
2022-12-28T20:27:08.000Z,4.2
2022-12-28T20:28:26.000Z,4.1
2022-12-28T20:29:53.000Z,3.7
2022-12-28T20:32:37.000Z,4.1
2022-12-28T20:35:22.000Z,4.1
2022-12-28T20:38:07.000Z,4.2
2022-12-28T20:40:51.000Z,3.7
2022-12-28T20:43:36.000Z,4.2
2022-12-28T20:46:20.000Z,3.8
2022-12-28T20:49:05.000Z,3.9
2022-12-28T20:51:50.000Z,3.7
2022-12-28T20:54:34.000Z,3.6
2022-12-28T20:55:52.000Z,4
2022-12-28T20:57:19.000Z,3.2
2022-12-28T21:00:04.000Z,3.6
2022-12-28T21:02:48.000Z,3.6
2022-12-28T21:05:33.000Z,3.8
2022-12-28T21:08:18.000Z,3.4
2022-12-28T21:11:02.000Z,2.9
2022-12-28T21:13:47.000Z,2.8
2022-12-28T21:19:16.000Z,3
2022-12-28T21:22:01.000Z,3.3
2022-12-28T21:23:19.000Z,2.8
2022-12-28T21:24:45.000Z,3.1
2022-12-28T21:27:30.000Z,2.5
2022-12-28T21:30:15.000Z,2.4
2022-12-28T21:32:59.000Z,2.2
2022-12-28T21:35:44.000Z,2.3
2022-12-28T21:38:29.000Z,2.1
2022-12-28T21:41:13.000Z,2.1
2022-12-28T21:43:58.000Z,2.2
2022-12-28T21:46:43.000Z,2
2022-12-28T21:49:27.000Z,1.8
2022-12-28T21:52:12.000Z,2.1
2022-12-28T21:54:56.000Z,2.3
2022-12-28T21:57:41.000Z,2
2022-12-28T22:00:26.000Z,2.2
2022-12-28T22:03:10.000Z,2.3
2022-12-28T22:05:55.000Z,2.5
2022-12-28T22:08:40.000Z,2.4
2022-12-28T22:11:24.000Z,2.4
2022-12-28T22:14:09.000Z,2.4
2022-12-28T22:16:54.000Z,2.1
2022-12-28T22:18:12.000Z,2
2022-12-28T22:19:38.000Z,2.1
2022-12-28T22:22:23.000Z,2.1
2022-12-28T22:25:08.000Z,1.9
2022-12-28T22:27:52.000Z,2.3
2022-12-28T22:30:37.000Z,2.3
2022-12-28T22:33:21.000Z,2.4
2022-12-28T22:36:06.000Z,1.8
2022-12-28T22:39:07.000Z,2.1
2022-12-28T22:41:52.000Z,1.8
2022-12-28T22:44:36.000Z,2.1
2022-12-28T22:45:54.000Z,1.8
2022-12-28T22:47:21.000Z,1.7
2022-12-28T22:50:06.000Z,1.9
2022-12-28T22:52:50.000Z,1.9
2022-12-28T22:55:35.000Z,1.9
2022-12-28T22:58:20.000Z,1.8
2022-12-28T23:01:04.000Z,2
2022-12-28T23:03:49.000Z,1.6
2022-12-28T23:06:34.000Z,1.8
2022-12-28T23:09:18.000Z,2.1
2022-12-28T23:12:03.000Z,1.7
2022-12-28T23:13:21.000Z,1.9
2022-12-28T23:14:47.000Z,2.1
2022-12-28T23:17:32.000Z,1.9
2022-12-28T23:20:17.000Z,1.9
2022-12-28T23:23:01.000Z,2
2022-12-28T23:25:46.000Z,1.9
2022-12-28T23:28:31.000Z,1.9
2022-12-28T23:31:15.000Z,2
2022-12-28T23:34:00.000Z,1.8
2022-12-28T23:36:45.000Z,2.2
2022-12-28T23:39:29.000Z,1.7
2022-12-28T23:40:47.000Z,1.7
2022-12-28T23:42:14.000Z,1.9
2022-12-28T23:44:59.000Z,1.6
2022-12-28T23:47:43.000Z,1.7
2022-12-28T23:50:28.000Z,1.6
2022-12-28T23:53:12.000Z,1.7
2022-12-28T23:55:57.000Z,1.7
2022-12-28T23:58:42.000Z,1.6
